Time;durP1;ratioP1;P1;durP2;ratioP2;P2;SDS_P1;SDS_P2;PMS_P1;PMS_P2;Temp;Humidity;BMP_temperature;BMP_pressure;BME280_temperature;BME280_humidity;BME280_pressure;Samples;Min_cycle;Max_cycle;Signal;HPM_P1;HPM_P2
2022/01/22 00:00:04;;;;;;;;;;;;;;;;;;6186787;23;19928;-76
2022/01/22 00:02:30;;;;;;;;;;;;;;;;;;6187188;23;20270;-76
2022/01/22 00:04:55;;;;;;;;;;;;;;;;;;6187464;23;19958;-76
2022/01/22 00:07:21;;;;;;;;;;;;;;;;;;6185196;23;19912;-76
2022/01/22 00:09:51;;;;;;;;;;;;;;;;;;6186170;23;20326;-76
2022/01/22 00:15:12;;;;;;;;;;;;;;;;;;6124673;23;20418;-75
2022/01/22 00:17:38;;;;;;;;;;;;;;;;;;6125080;23;19921;-76
2022/01/22 00:20:04;;;;;;;;;;;;;;;;;;6124326;23;20351;-77
2022/01/22 00:22:33;;;;;;;;;;;;;;;;;;6125335;23;19909;-76
2022/01/22 00:25:01;;;;;;;;;;;;;;;;;;6124184;23;19908;-76
2022/01/22 00:27:27;;;;;;;;;;;;;;;;;;6124036;23;20297;-76
2022/01/22 00:29:52;;;;;;;;;;;;;;;;;;6125000;23;19982;-76
2022/01/22 00:32:18;;;;;;;;;;;;;;;;;;6124005;23;19983;-77
2022/01/22 00:34:44;;;;;;;;;;;;;;;;;;6100323;23;20291;-76
2022/01/22 00:37:10;;;;;;;;;;;;;;;;;;6100172;23;19984;-77
2022/01/22 00:39:36;;;;;;;;;;;;;;;;;;6124546;23;19905;-77
2022/01/22 00:42:04;;;;;;;;;;;;;;;;;;6124375;23;19916;-77
2022/01/22 00:44:30;;;;;;;;;;;;;;;;;;6100317;23;19912;-76
2022/01/22 00:46:59;;;;;;;;;;;;;;;;;;6124543;23;19905;-76
2022/01/22 00:49:25;;;;;;;;;;;;;;;;;;6124530;23;20351;-76
2022/01/22 00:51:51;;;;;;;;;;;;;;;;;;6162475;23;19904;-77
2022/01/22 00:54:17;;;;;;;;;;;;;;;;;;6184348;23;19910;-76
2022/01/22 00:56:43;;;;;;;;;;;;;;;;;;6186492;23;19904;-76
2022/01/22 00:59:08;;;;;;;;;;;;;;;;;;6186460;23;20246;-76
2022/01/22 01:01:34;;;;;;;;;;;;;;;;;;6184887;23;19912;-76
2022/01/22 01:04:02;;;;;;;;;;;;;;;;;;6186134;23;19904;-77
2022/01/22 01:06:28;;;;;;;;;;;;;;;;;;6185844;23;19905;-76
2022/01/22 01:08:54;;;;;;;;;;;;;;;;;;6184626;23;19916;-77
2022/01/22 01:11:23;;;;;;;;;;;;;;;;;;6184479;23;19955;-76
2022/01/22 01:13:55;;;;;;;;;;;;;;;;;;6186537;23;19904;-76
2022/01/22 01:16:43;;;;;;;;;;;;;;;;;;6186416;23;19932;-76
2022/01/22 01:33:06;;;;;;;;;;;;;;;;;;6186259;23;20362;-76
2022/01/22 01:35:35;;;;;;;;;;;;;;;;;;6185955;23;19966;-77
2022/01/22 01:38:02;;;;;;;;;;;;;;;;;;6184011;23;19904;-77
2022/01/22 01:40:30;;;;;;;;;;;;;;;;;;6186219;23;20222;-76
2022/01/22 01:45:57;;;;;;;;;;;;;;;;;;6124193;23;20421;-77
2022/01/22 01:48:28;;;;;;;;;;;;;;;;;;6123972;23;19934;-77
2022/01/22 01:50:56;;;;;;;;;;;;;;;;;;6124073;23;19909;-77
2022/01/22 01:58:23;;;;;;;;;;;;;;;;;;6123682;23;20300;-76
2022/01/22 02:00:49;;;;;;;;;;;;;;;;;;6123922;23;19907;-77
2022/01/22 02:03:15;;;;;;;;;;;;;;;;;;6124079;23;19913;-76
2022/01/22 02:05:41;;;;;;;;;;;;;;;;;;6123949;23;20338;-76
2022/01/22 02:08:07;;;;;;;;;;;;;;;;;;6123897;23;19908;-76
2022/01/22 02:10:36;;;;;;;;;;;;;;;;;;6099190;23;19912;-76
2022/01/22 02:24:02;;;;;;;;;;;;;;;;;;6185887;23;19911;-77
2022/01/22 02:26:29;;;;;;;;;;;;;;;;;;6186016;23;19959;-76
2022/01/22 02:28:55;;;;;;;;;;;;;;;;;;6183963;23;19912;-76
2022/01/22 02:34:08;;;;;;;;;;;;;;;;;;6185186;23;19912;-76
2022/01/22 02:36:42;;;;;;;;;;;;;;;;;;6185103;23;19927;-76
2022/01/22 02:41:42;;;;;;;;;;;;;;;;;;6185530;23;19931;-77
2022/01/22 02:44:08;;;;;;;;;;;;;;;;;;6185650;23;19912;-77
2022/01/22 02:46:38;;;;;;;;;;;;;;;;;;6185246;23;19901;-77
2022/01/22 02:49:04;;;;;;;;;;;;;;;;;;6185486;23;19912;-76
2022/01/22 02:51:30;;;;;;;;;;;;;;;;;;6185083;23;19900;-77
2022/01/22 02:53:56;;;;;;;;;;;;;;;;;;6185632;23;19904;-76
2022/01/22 02:56:23;;;;;;;;;;;;;;;;;;6185490;23;19908;-76
2022/01/22 02:58:49;;;;;;;;;;;;;;;;;;6185047;23;19926;-76
2022/01/22 03:01:16;;;;;;;;;;;;;;;;;;6184925;23;20343;-77
2022/01/22 03:03:42;;;;;;;;;;;;;;;;;;6184704;23;20279;-76
2022/01/22 03:06:08;;;;;;;;;;;;;;;;;;6183588;23;19939;-76
2022/01/22 03:08:34;;;;;;;;;;;;;;;;;;6185424;23;20044;-76
2022/01/22 03:11:04;;;;;;;;;;;;;;;;;;6185646;23;20201;-76
2022/01/22 03:29:20;;;;;;;;;;;;;;;;;;6123563;23;20418;-76
2022/01/22 03:31:46;;;;;;;;;;;;;;;;;;6122749;23;19943;-76
2022/01/22 03:34:12;;;;;;;;;;;;;;;;;;6122651;23;19909;-76
2022/01/22 03:36:38;;;;;;;;;;;;;;;;;;6123140;23;19936;-77
2022/01/22 03:39:04;;;;;;;;;;;;;;;;;;6123313;23;19932;-76
2022/01/22 03:41:30;;;;;;;;;;;;;;;;;;6123310;23;19909;-76
2022/01/22 03:43:56;;;;;;;;;;;;;;;;;;6123333;23;19905;-76
2022/01/22 03:46:22;;;;;;;;;;;;;;;;;;6122922;23;19901;-77
2022/01/22 03:48:48;;;;;;;;;;;;;;;;;;6123053;23;19948;-76
2022/01/22 03:51:14;;;;;;;;;;;;;;;;;;6099343;23;19905;-76
2022/01/22 03:53:40;;;;;;;;;;;;;;;;;;6162120;23;19912;-77
2022/01/22 03:56:07;;;;;;;;;;;;;;;;;;6185159;23;20239;-76
2022/01/22 03:58:33;;;;;;;;;;;;;;;;;;6185437;23;19901;-76
2022/01/22 04:03:53;;;;;;;;;;;;;;;;;;6184338;23;19996;-77
2022/01/22 04:08:56;;;;;;;;;;;;;;;;;;6187237;23;19913;-76
2022/01/22 04:11:22;;;;;;;;;;;;;;;;;;6187280;23;19905;-77
2022/01/22 04:13:51;;;;;;;;;;;;;;;;;;6186801;23;19983;-76
2022/01/22 04:16:17;;;;;;;;;;;;;;;;;;6186351;23;19911;-77
2022/01/22 04:27:06;;;;;;;;;;;;;;;;;;6186939;23;19911;-76
2022/01/22 04:29:32;;;;;;;;;;;;;;;;;;6186856;23;19904;-77
2022/01/22 04:31:58;;;;;;;;;;;;;;;;;;6186608;23;20315;-77
2022/01/22 04:34:24;;;;;;;;;;;;;;;;;;6187271;23;20330;-76
2022/01/22 04:36:50;;;;;;;;;;;;;;;;;;6184569;23;19975;-76
2022/01/22 04:39:19;;;;;;;;;;;;;;;;;;6186793;23;19905;-76
2022/01/22 04:41:45;;;;;;;;;;;;;;;;;;6186705;23;19912;-76
2022/01/22 04:44:11;;;;;;;;;;;;;;;;;;6184513;23;19912;-76
2022/01/22 04:49:13;;;;;;;;;;;;;;;;;;6186403;23;19911;-76
2022/01/22 04:57:07;;;;;;;;;;;;;;;;;;6186577;23;19908;-76
2022/01/22 04:59:33;;;;;;;;;;;;;;;;;;6186026;23;19908;-76
2022/01/22 05:01:59;;;;;;;;;;;;;;;;;;6185771;23;19908;-76
2022/01/22 05:04:25;;;;;;;;;;;;;;;;;;6186652;23;20381;-76
2022/01/22 05:06:51;;;;;;;;;;;;;;;;;;6186573;23;19900;-76
2022/01/22 05:09:17;;;;;;;;;;;;;;;;;;6185227;23;19904;-77
2022/01/22 05:11:43;;;;;;;;;;;;;;;;;;6184694;23;20360;-77
2022/01/22 05:14:09;;;;;;;;;;;;;;;;;;6185713;23;19904;-76
2022/01/22 05:16:35;;;;;;;;;;;;;;;;;;6184639;23;19967;-76
2022/01/22 05:19:07;;;;;;;;;;;;;;;;;;6185823;23;20323;-77
2022/01/22 05:21:36;;;;;;;;;;;;;;;;;;6187073;23;19974;-76
2022/01/22 05:24:06;;;;;;;;;;;;;;;;;;6185777;23;19979;-76
2022/01/22 05:36:58;;;;;;;;;;;;;;;;;;6124124;23;20247;-73
2022/01/22 05:39:24;;;;;;;;;;;;;;;;;;6124283;23;19913;-76
2022/01/22 05:41:50;;;;;;;;;;;;;;;;;;6124277;23;20712;-77
2022/01/22 05:44:16;;;;;;;;;;;;;;;;;;6123535;23;20028;-77
2022/01/22 05:46:42;;;;;;;;;;;;;;;;;;6123837;23;19988;-76
2022/01/22 05:49:08;;;;;;;;;;;;;;;;;;6099449;23;20242;-77
2022/01/22 05:51:36;;;;;;;;;;;;;;;;;;6124731;23;19932;-77
2022/01/22 05:55:06;;;;;;;;;;;;;;;;;;6124104;23;19924;-77
2022/01/22 05:59:37;;;;;;;;;;;;;;;;;;6124061;23;19912;-76
2022/01/22 06:02:02;;;;;;;;;;;;;;;;;;6099504;23;19909;-76
2022/01/22 06:04:28;;;;;;;;;;;;;;;;;;6123898;23;19912;-76
2022/01/22 06:06:54;;;;;;;;;;;;;;;;;;6124262;23;20335;-76
2022/01/22 06:09:20;;;;;;;;;;;;;;;;;;6140355;23;19909;-76
2022/01/22 06:12:14;;;;;;;;;;;;;;;;;;6186107;23;19970;-76
2022/01/22 06:14:40;;;;;;;;;;;;;;;;;;6186124;23;20331;-76
2022/01/22 06:17:06;;;;;;;;;;;;;;;;;;6185860;23;19911;-76
2022/01/22 06:19:32;;;;;;;;;;;;;;;;;;6185037;23;19916;-76
2022/01/22 06:21:58;;;;;;;;;;;;;;;;;;6185725;23;19908;-76
2022/01/22 06:24:24;;;;;;;;;;;;;;;;;;6186223;23;19904;-76
2022/01/22 06:26:50;;;;;;;;;;;;;;;;;;6185560;23;19901;-77
2022/01/22 06:29:16;;;;;;;;;;;;;;;;;;6185583;23;19936;-76
2022/01/22 06:31:42;;;;;;;;;;;;;;;;;;6185364;23;19904;-76
2022/01/22 06:34:07;;;;;;;;;;;;;;;;;;6185470;23;19901;-77
2022/01/22 06:36:33;;;;;;;;;;;;;;;;;;6185815;23;19904;-76
2022/01/22 06:39:11;;;;;;;;;;;;;;;;;;6185765;23;19900;-76
2022/01/22 06:41:46;;;;;;;;;;;;;;;;;;6185017;23;19909;-77
2022/01/22 06:44:12;;;;;;;;;;;;;;;;;;6185397;23;19904;-76
2022/01/22 06:46:38;;;;;;;;;;;;;;;;;;6183673;23;20250;-77
2022/01/22 06:49:04;;;;;;;;;;;;;;;;;;6185941;23;19918;-74
2022/01/22 06:51:30;;;;;;;;;;;;;;;;;;6185561;23;19908;-75
2022/01/22 06:53:56;;;;;;;;;;;;;;;;;;6185337;23;20254;-76
2022/01/22 06:56:24;;;;;;;;;;;;;;;;;;6184849;23;19979;-74
2022/01/22 06:58:50;;;;;;;;;;;;;;;;;;6185948;23;20311;-74
2022/01/22 07:01:16;;;;;;;;;;;;;;;;;;6183616;23;19904;-77
2022/01/22 07:03:41;;;;;;;;;;;;;;;;;;6185655;23;19905;-76
2022/01/22 07:06:07;;;;;;;;;;;;;;;;;;6183886;23;20338;-75
2022/01/22 07:08:33;;;;;;;;;;;;;;;;;;6185103;23;19904;-76
2022/01/22 07:10:59;;;;;;;;;;;;;;;;;;6185033;23;19904;-76
2022/01/22 07:13:25;;;;;;;;;;;;;;;;;;6185237;23;19905;-74
2022/01/22 07:15:51;;;;;;;;;;;;;;;;;;6183915;23;20434;-74
2022/01/22 07:18:17;;;;;;;;;;;;;;;;;;6185258;23;19983;-74
2022/01/22 07:20:44;;;;;;;;;;;;;;;;;;6185007;23;19984;-75
2022/01/22 07:23:17;;;;;;;;;;;;;;;;;;6185376;23;19958;-74
2022/01/22 07:25:43;;;;;;;;;;;;;;;;;;6185455;23;19971;-75
2022/01/22 07:28:10;;;;;;;;;;;;;;;;;;6183763;23;19951;-74
2022/01/22 07:30:36;;;;;;;;;;;;;;;;;;6185396;23;19904;-75
2022/01/22 07:33:02;;;;;;;;;;;;;;;;;;6183589;23;19904;-74
2022/01/22 07:35:28;;;;;;;;;;;;;;;;;;6184725;23;19910;-74
2022/01/22 07:37:54;;;;;;;;;;;;;;;;;;6185002;23;19913;-75
2022/01/22 07:40:20;;;;;;;;;;;;;;;;;;6184222;23;19904;-74
2022/01/22 07:42:46;;;;;;;;;;;;;;;;;;6186482;23;19931;-74
2022/01/22 07:45:12;;;;;;;;;;;;;;;;;;6187158;23;19911;-76
2022/01/22 07:47:38;;;;;;;;;;;;;;;;;;6185214;23;19904;-74
2022/01/22 07:50:04;;;;;;;;;;;;;;;;;;6186961;23;20277;-74
2022/01/22 07:52:30;;;;;;;;;;;;;;;;;;6186805;23;19911;-74
2022/01/22 07:54:55;;;;;;;;;;;;;;;;;;6186457;23;19908;-74
2022/01/22 07:57:21;;;;;;;;;;;;;;;;;;6185218;23;19904;-75
2022/01/22 07:59:47;;;;;;;;;;;;;;;;;;6187058;23;19905;-76
2022/01/22 08:02:14;;;;;;;;;;;;;;;;;;6186376;23;19908;-76
2022/01/22 08:04:40;;;;;;;;;;;;;;;;;;6187001;23;19908;-74
2022/01/22 08:07:06;;;;;;;;;;;;;;;;;;6186592;23;19915;-76
2022/01/22 08:09:32;;;;;;;;;;;;;;;;;;6186857;23;19904;-76
2022/01/22 08:11:59;;;;;;;;;;;;;;;;;;6186875;23;19911;-74
2022/01/22 08:14:25;;;;;;;;;;;;;;;;;;6186832;23;19908;-74
2022/01/22 08:16:51;;;;;;;;;;;;;;;;;;6187078;23;20381;-76
2022/01/22 08:19:17;;;;;;;;;;;;;;;;;;6185025;23;19912;-76
2022/01/22 08:21:43;;;;;;;;;;;;;;;;;;6186131;23;19908;-74
2022/01/22 08:24:10;;;;;;;;;;;;;;;;;;6183924;23;19904;-74
2022/01/22 08:26:40;;;;;;;;;;;;;;;;;;6185467;23;19971;-74
2022/01/22 08:29:06;;;;;;;;;;;;;;;;;;6186089;23;19951;-74
2022/01/22 08:36:42;;;;;;;;;;;;;;;;;;6185099;23;20008;-74
2022/01/22 08:39:08;;;;;;;;;;;;;;;;;;6186585;23;20327;-74
2022/01/22 08:41:34;;;;;;;;;;;;;;;;;;6184461;23;19975;-75
2022/01/22 08:44:00;;;;;;;;;;;;;;;;;;6185040;23;19958;-77
2022/01/22 08:46:26;;;;;;;;;;;;;;;;;;6186824;23;19912;-75
2022/01/22 08:48:52;;;;;;;;;;;;;;;;;;6186073;23;20057;-76
2022/01/22 08:51:18;;;;;;;;;;;;;;;;;;6185223;23;19900;-75
2022/01/22 08:53:44;;;;;;;;;;;;;;;;;;6185353;23;19904;-76
2022/01/22 08:56:10;;;;;;;;;;;;;;;;;;6186042;23;20291;-75
2022/01/22 08:58:36;;;;;;;;;;;;;;;;;;6185571;23;19979;-75
2022/01/22 09:01:02;;;;;;;;;;;;;;;;;;6185648;23;19935;-77
2022/01/22 09:03:28;;;;;;;;;;;;;;;;;;6184023;23;20442;-75
2022/01/22 09:05:54;;;;;;;;;;;;;;;;;;6185555;23;19931;-76
2022/01/22 09:08:20;;;;;;;;;;;;;;;;;;6185729;23;19904;-75
2022/01/22 09:10:46;;;;;;;;;;;;;;;;;;6183663;23;20601;-76
2022/01/22 09:13:12;;;;;;;;;;;;;;;;;;6186437;23;19904;-74
2022/01/22 09:15:38;;;;;;;;;;;;;;;;;;6185797;23;19947;-77
2022/01/22 09:18:04;;;;;;;;;;;;;;;;;;6185759;23;19908;-75
2022/01/22 09:23:05;;;;;;;;;;;;;;;;;;6186416;23;20241;-75
2022/01/22 09:25:31;;;;;;;;;;;;;;;;;;6186028;23;19915;-75
2022/01/22 09:27:57;;;;;;;;;;;;;;;;;;6186587;23;19905;-75
2022/01/22 09:30:23;;;;;;;;;;;;;;;;;;6185997;23;19908;-75
2022/01/22 09:32:49;;;;;;;;;;;;;;;;;;6186015;23;19908;-75
2022/01/22 09:35:15;;;;;;;;;;;;;;;;;;6185076;23;19932;-75
2022/01/22 09:37:41;;;;;;;;;;;;;;;;;;6185494;23;19905;-75
2022/01/22 09:40:07;;;;;;;;;;;;;;;;;;6185781;23;19911;-75
2022/01/22 09:42:32;;;;;;;;;;;;;;;;;;6184194;23;19908;-75
2022/01/22 09:44:58;;;;;;;;;;;;;;;;;;6185891;23;19905;-74
2022/01/22 09:47:24;;;;;;;;;;;;;;;;;;6186338;23;19927;-74
2022/01/22 09:49:50;;;;;;;;;;;;;;;;;;6183445;23;20334;-75
2022/01/22 09:52:16;;;;;;;;;;;;;;;;;;6186446;23;19911;-76
2022/01/22 09:54:42;;;;;;;;;;;;;;;;;;6185685;23;19984;-75
2022/01/22 09:57:09;;;;;;;;;;;;;;;;;;6186232;23;20326;-73
2022/01/22 09:59:35;;;;;;;;;;;;;;;;;;6186115;23;19904;-76
2022/01/22 10:02:01;;;;;;;;;;;;;;;;;;6185906;23;19908;-77
2022/01/22 10:04:27;;;;;;;;;;;;;;;;;;6183826;23;19958;-76
2022/01/22 10:06:53;;;;;;;;;;;;;;;;;;6183910;23;19927;-77
2022/01/22 10:09:27;;;;;;;;;;;;;;;;;;6185785;23;19904;-74
2022/01/22 10:11:53;;;;;;;;;;;;;;;;;;6183965;23;19983;-75
2022/01/22 10:14:19;;;;;;;;;;;;;;;;;;6182973;23;19940;-75
2022/01/22 10:16:45;;;;;;;;;;;;;;;;;;6185553;23;19912;-74
2022/01/22 10:19:11;;;;;;;;;;;;;;;;;;6184063;23;19939;-74
2022/01/22 10:21:36;;;;;;;;;;;;;;;;;;6185032;23;19915;-75
2022/01/22 10:24:02;;;;;;;;;;;;;;;;;;6185278;23;20285;-74
2022/01/22 10:26:28;;;;;;;;;;;;;;;;;;6185753;23;19904;-74
2022/01/22 10:29:01;;;;;;;;;;;;;;;;;;6185615;23;19920;-75
2022/01/22 10:31:29;;;;;;;;;;;;;;;;;;6185408;23;19927;-77
2022/01/22 10:33:55;;;;;;;;;;;;;;;;;;6183311;23;19908;-77
2022/01/22 10:36:21;;;;;;;;;;;;;;;;;;6185817;23;19904;-76
2022/01/22 10:38:47;;;;;;;;;;;;;;;;;;6185754;23;20012;-76
2022/01/22 10:41:14;;;;;;;;;;;;;;;;;;6184001;23;19983;-76
2022/01/22 10:43:43;;;;;;;;;;;;;;;;;;6185510;23;19939;-76
2022/01/22 10:46:31;;;;;;;;;;;;;;;;;;6185463;23;19951;-76
2022/01/22 10:48:57;;;;;;;;;;;;;;;;;;6185275;23;19905;-76
2022/01/22 10:51:23;;;;;;;;;;;;;;;;;;6185640;23;20333;-77
2022/01/22 10:53:49;;;;;;;;;;;;;;;;;;6185622;23;19904;-76
2022/01/22 10:56:16;;;;;;;;;;;;;;;;;;6184766;23;19931;-77
2022/01/22 10:58:42;;;;;;;;;;;;;;;;;;6185526;23;19909;-76
2022/01/22 11:01:08;;;;;;;;;;;;;;;;;;6184872;23;20334;-76
2022/01/22 11:03:34;;;;;;;;;;;;;;;;;;6185131;23;19919;-76
2022/01/22 11:06:05;;;;;;;;;;;;;;;;;;6185041;23;19973;-76
2022/01/22 11:08:31;;;;;;;;;;;;;;;;;;6185323;23;20388;-76
2022/01/22 11:10:57;;;;;;;;;;;;;;;;;;6185079;23;19931;-78
2022/01/22 11:13:23;;;;;;;;;;;;;;;;;;6185771;23;19975;-77
2022/01/22 11:15:49;;;;;;;;;;;;;;;;;;6184776;23;20479;-76
2022/01/22 11:18:15;;;;;;;;;;;;;;;;;;6184793;23;19904;-76
2022/01/22 11:20:41;;;;;;;;;;;;;;;;;;6184925;23;20322;-77
2022/01/22 11:23:07;;;;;;;;;;;;;;;;;;6185215;23;19909;-76
2022/01/22 11:25:32;;;;;;;;;;;;;;;;;;6185251;23;19911;-76
2022/01/22 11:27:58;;;;;;;;;;;;;;;;;;6185175;23;19905;-75
2022/01/22 11:30:25;;;;;;;;;;;;;;;;;;6184760;23;19916;-77
2022/01/22 11:32:52;;;;;;;;;;;;;;;;;;6183773;23;19984;-76
2022/01/22 11:35:18;;;;;;;;;;;;;;;;;;6185083;23;19904;-76
2022/01/22 11:37:44;;;;;;;;;;;;;;;;;;6185546;23;19904;-76
2022/01/22 11:40:10;;;;;;;;;;;;;;;;;;6185225;23;19904;-77
2022/01/22 11:42:36;;;;;;;;;;;;;;;;;;6185275;23;19915;-79
2022/01/22 11:45:03;;;;;;;;;;;;;;;;;;6184691;23;19905;-74
2022/01/22 11:47:29;;;;;;;;;;;;;;;;;;6183415;23;19912;-74
2022/01/22 11:49:54;;;;;;;;;;;;;;;;;;6184495;23;20625;-75
2022/01/22 11:52:24;;;;;;;;;;;;;;;;;;6185461;23;19905;-74
2022/01/22 11:54:49;;;;;;;;;;;;;;;;;;6189037;23;19904;-74
2022/01/22 11:57:16;;;;;;;;;;;;;;;;;;6184661;23;19905;-77
2022/01/22 11:59:43;;;;;;;;;;;;;;;;;;6184802;23;19935;-77
2022/01/22 12:02:09;;;;;;;;;;;;;;;;;;6184605;23;19915;-76
2022/01/22 12:04:35;;;;;;;;;;;;;;;;;;6184409;23;19904;-76
2022/01/22 12:07:04;;;;;;;;;;;;;;;;;;6184569;23;19901;-76
2022/01/22 12:09:39;;;;;;;;;;;;;;;;;;6184849;23;20293;-76
2022/01/22 12:14:50;;;;;;;;;;;;;;;;;;6184226;23;19976;-76
2022/01/22 12:17:26;;;;;;;;;;;;;;;;;;6184502;23;19900;-76
2022/01/22 12:22:25;;;;;;;;;;;;;;;;;;6185206;23;19908;-77
2022/01/22 12:24:50;;;;;;;;;;;;;;;;;;6184822;23;19911;-77
2022/01/22 12:27:16;;;;;;;;;;;;;;;;;;6184746;23;19932;-77
2022/01/22 12:29:42;;;;;;;;;;;;;;;;;;6184011;23;19939;-76
2022/01/22 12:32:08;;;;;;;;;;;;;;;;;;6186141;23;19983;-75
2022/01/22 12:34:34;;;;;;;;;;;;;;;;;;6186847;23;19904;-76
2022/01/22 12:37:05;;;;;;;;;;;;;;;;;;6185610;23;19905;-76
2022/01/22 12:39:31;;;;;;;;;;;;;;;;;;6186097;23;19908;-76
2022/01/22 12:41:57;;;;;;;;;;;;;;;;;;6185789;23;19930;-76
2022/01/22 12:44:35;;;;;;;;;;;;;;;;;;6184309;23;19909;-76
2022/01/22 12:47:01;;;;;;;;;;;;;;;;;;6185119;23;20294;-76
2022/01/22 12:49:27;;;;;;;;;;;;;;;;;;6184392;23;19908;-77
2022/01/22 12:51:53;;;;;;;;;;;;;;;;;;6185886;23;19904;-76
2022/01/22 12:54:18;;;;;;;;;;;;;;;;;;6184406;23;19931;-76
2022/01/22 12:56:51;;;;;;;;;;;;;;;;;;6184783;23;19915;-77
2022/01/22 12:59:17;;;;;;;;;;;;;;;;;;6183950;23;19904;-77
2022/01/22 13:01:43;;;;;;;;;;;;;;;;;;6185007;23;19915;-76
2022/01/22 13:04:09;;;;;;;;;;;;;;;;;;6185318;23;19979;-76
2022/01/22 13:06:35;;;;;;;;;;;;;;;;;;6183909;23;19911;-76
2022/01/22 13:09:01;;;;;;;;;;;;;;;;;;6185976;23;19955;-77
2022/01/22 13:11:27;;;;;;;;;;;;;;;;;;6183957;23;20282;-76
2022/01/22 13:13:54;;;;;;;;;;;;;;;;;;6184623;23;19908;-77
2022/01/22 13:16:20;;;;;;;;;;;;;;;;;;6186300;23;20322;-76
2022/01/22 13:18:46;;;;;;;;;;;;;;;;;;6186338;23;19911;-76
2022/01/22 13:21:12;;;;;;;;;;;;;;;;;;6186157;23;20373;-76
2022/01/22 13:23:38;;;;;;;;;;;;;;;;;;6185749;23;19955;-77
2022/01/22 13:26:04;;;;;;;;;;;;;;;;;;6185804;23;19912;-77
2022/01/22 13:28:34;;;;;;;;;;;;;;;;;;6186057;23;20335;-76
2022/01/22 13:31:05;;;;;;;;;;;;;;;;;;6185249;23;19911;-76
2022/01/22 13:33:40;;;;;;;;;;;;;;;;;;6184890;23;19905;-76
2022/01/22 13:48:53;;;;;;;;;;;;;;;;;;6185067;23;19911;-76
2022/01/22 13:51:19;;;;;;;;;;;;;;;;;;6184807;23;19980;-76
2022/01/22 13:53:46;;;;;;;;;;;;;;;;;;6185100;23;19934;-77
2022/01/22 13:56:13;;;;;;;;;;;;;;;;;;6183006;23;20321;-76
2022/01/22 13:58:39;;;;;;;;;;;;;;;;;;6184543;23;19908;-75
2022/01/22 14:01:06;;;;;;;;;;;;;;;;;;6184656;23;20357;-76
2022/01/22 14:03:44;;;;;;;;;;;;;;;;;;6184503;23;19914;-78
2022/01/22 14:06:10;;;;;;;;;;;;;;;;;;6184776;23;20382;-77
2022/01/22 14:08:36;;;;;;;;;;;;;;;;;;6182961;23;19931;-77
2022/01/22 14:11:03;;;;;;;;;;;;;;;;;;6184689;23;19909;-78
2022/01/22 14:13:29;;;;;;;;;;;;;;;;;;6184675;23;19908;-77
2022/01/22 14:15:54;;;;;;;;;;;;;;;;;;6185128;23;19908;-74
2022/01/22 14:18:22;;;;;;;;;;;;;;;;;;6183730;23;20410;-74
2022/01/22 14:20:48;;;;;;;;;;;;;;;;;;6183276;23;19923;-74
2022/01/22 14:23:14;;;;;;;;;;;;;;;;;;6184499;23;19908;-77
2022/01/22 14:25:40;;;;;;;;;;;;;;;;;;6183981;23;20024;-74
2022/01/22 14:28:06;;;;;;;;;;;;;;;;;;6184623;23;20068;-76
2022/01/22 14:30:32;;;;;;;;;;;;;;;;;;6182748;23;19980;-76
2022/01/22 14:32:58;;;;;;;;;;;;;;;;;;6184749;23;19904;-73
2022/01/22 14:35:24;;;;;;;;;;;;;;;;;;6184157;23;19908;-73
2022/01/22 14:37:53;;;;;;;;;;;;;;;;;;6185082;23;19930;-74
2022/01/22 14:45:48;;;;;;;;;;;;;;;;;;6183945;23;20250;-74
2022/01/22 14:48:14;;;;;;;;;;;;;;;;;;6185245;23;19912;-75
2022/01/22 14:50:40;;;;;;;;;;;;;;;;;;6183958;23;19912;-75
2022/01/22 14:53:07;;;;;;;;;;;;;;;;;;6184132;23;20241;-75
2022/01/22 14:55:34;;;;;;;;;;;;;;;;;;6184211;23;19905;-74
2022/01/22 14:57:59;;;;;;;;;;;;;;;;;;6184490;23;19904;-75
2022/01/22 15:00:25;;;;;;;;;;;;;;;;;;6183369;23;19958;-75
2022/01/22 15:02:51;;;;;;;;;;;;;;;;;;6184286;23;19914;-74
2022/01/22 15:05:17;;;;;;;;;;;;;;;;;;6184241;23;20328;-75
2022/01/22 15:07:43;;;;;;;;;;;;;;;;;;6184341;23;19904;-75
2022/01/22 15:10:09;;;;;;;;;;;;;;;;;;6184357;23;19904;-75
2022/01/22 15:12:35;;;;;;;;;;;;;;;;;;6184114;23;19915;-74
2022/01/22 15:15:01;;;;;;;;;;;;;;;;;;6184939;23;19957;-74
2022/01/22 15:17:29;;;;;;;;;;;;;;;;;;6184271;23;19912;-74
2022/01/22 15:19:55;;;;;;;;;;;;;;;;;;6183904;23;19920;-75
2022/01/22 15:22:21;;;;;;;;;;;;;;;;;;6183675;23;19915;-74
2022/01/22 15:24:47;;;;;;;;;;;;;;;;;;6183837;23;19908;-74
2022/01/22 15:27:13;;;;;;;;;;;;;;;;;;6184253;23;19908;-74
2022/01/22 15:35:09;;;;;;;;;;;;;;;;;;6184767;23;19959;-75
2022/01/22 15:37:35;;;;;;;;;;;;;;;;;;6183259;23;19912;-77
2022/01/22 15:40:02;;;;;;;;;;;;;;;;;;6183518;23;19904;-74
2022/01/22 15:42:28;;;;;;;;;;;;;;;;;;6184887;23;19909;-77
2022/01/22 15:44:54;;;;;;;;;;;;;;;;;;6182730;23;19904;-76
2022/01/22 15:47:20;;;;;;;;;;;;;;;;;;6183362;23;19908;-75
2022/01/22 15:49:50;;;;;;;;;;;;;;;;;;6184605;23;19904;-76
2022/01/22 15:52:16;;;;;;;;;;;;;;;;;;6183622;23;19909;-76
2022/01/22 15:54:43;;;;;;;;;;;;;;;;;;6183125;23;20383;-75
2022/01/22 15:57:10;;;;;;;;;;;;;;;;;;6184019;23;20323;-76
2022/01/22 15:59:36;;;;;;;;;;;;;;;;;;6184343;23;19904;-76
2022/01/22 16:02:02;;;;;;;;;;;;;;;;;;6182072;23;19914;-76
2022/01/22 16:04:27;;;;;;;;;;;;;;;;;;6186022;23;20356;-76
2022/01/22 16:09:19;;;;;;;;;;;;;;;;;;6186807;23;19908;-76
2022/01/22 16:11:45;;;;;;;;;;;;;;;;;;6186478;23;19908;-76
2022/01/22 16:14:11;;;;;;;;;;;;;;;;;;6183421;23;19908;-76
2022/01/22 16:16:37;;;;;;;;;;;;;;;;;;6185480;23;19904;-76
2022/01/22 16:19:03;;;;;;;;;;;;;;;;;;6185740;23;19919;-76
2022/01/22 16:21:29;;;;;;;;;;;;;;;;;;6185755;23;19908;-76
2022/01/22 16:23:55;;;;;;;;;;;;;;;;;;6185603;23;19983;-76
2022/01/22 16:26:21;;;;;;;;;;;;;;;;;;6185902;23;19932;-73
2022/01/22 16:28:47;;;;;;;;;;;;;;;;;;6186005;23;19904;-75
2022/01/22 16:31:12;;;;;;;;;;;;;;;;;;6186508;23;19905;-75
2022/01/22 16:33:38;;;;;;;;;;;;;;;;;;6186440;23;19987;-75
2022/01/22 16:36:04;;;;;;;;;;;;;;;;;;6185888;23;19911;-75
2022/01/22 16:38:30;;;;;;;;;;;;;;;;;;6186434;23;20343;-76
2022/01/22 16:40:56;;;;;;;;;;;;;;;;;;6184937;23;19932;-73
2022/01/22 16:43:29;;;;;;;;;;;;;;;;;;6186432;23;19943;-75
2022/01/22 16:46:25;;;;;;;;;;;;;;;;;;6185949;23;19983;-76
2022/01/22 16:51:56;;;;;;;;;;;;;;;;;;6182572;23;20313;-74
2022/01/22 16:56:54;;;;;;;;;;;;;;;;;;6185588;23;19905;-74
2022/01/22 16:59:22;;;;;;;;;;;;;;;;;;6185726;23;19904;-74
2022/01/22 17:01:50;;;;;;;;;;;;;;;;;;6185609;23;19955;-74
2022/01/22 17:04:22;;;;;;;;;;;;;;;;;;6183200;23;19914;-76
2022/01/22 17:06:48;;;;;;;;;;;;;;;;;;6185434;23;19905;-76
2022/01/22 17:14:52;;;;;;;;;;;;;;;;;;6122829;23;19911;-73
2022/01/22 17:17:18;;;;;;;;;;;;;;;;;;6123439;23;19988;-76
2022/01/22 17:19:44;;;;;;;;;;;;;;;;;;6120516;23;19948;-73
2022/01/22 17:22:10;;;;;;;;;;;;;;;;;;6123275;23;20439;-74
2022/01/22 17:24:38;;;;;;;;;;;;;;;;;;6123382;23;19944;-74
2022/01/22 17:27:04;;;;;;;;;;;;;;;;;;6123501;23;19901;-76
2022/01/22 17:29:30;;;;;;;;;;;;;;;;;;6123502;23;19905;-75
2022/01/22 17:31:56;;;;;;;;;;;;;;;;;;6122924;23;19901;-76
2022/01/22 17:34:22;;;;;;;;;;;;;;;;;;6121600;23;19931;-74
2022/01/22 17:36:48;;;;;;;;;;;;;;;;;;6096803;23;19901;-73
2022/01/22 17:39:16;;;;;;;;;;;;;;;;;;6121984;23;20000;-75
2022/01/22 17:41:44;;;;;;;;;;;;;;;;;;6122748;23;19912;-74
2022/01/22 17:44:11;;;;;;;;;;;;;;;;;;6120961;23;19995;-74
2022/01/22 17:46:37;;;;;;;;;;;;;;;;;;6119377;23;19909;-74
2022/01/22 17:49:03;;;;;;;;;;;;;;;;;;6154947;23;20003;-74
2022/01/22 17:51:29;;;;;;;;;;;;;;;;;;6182243;23;19904;-74
2022/01/22 17:53:55;;;;;;;;;;;;;;;;;;6180916;23;19912;-74
2022/01/22 17:56:20;;;;;;;;;;;;;;;;;;6182384;23;20575;-76
2022/01/22 17:58:46;;;;;;;;;;;;;;;;;;6182851;23;19954;-75
2022/01/22 18:01:12;;;;;;;;;;;;;;;;;;6182479;23;19904;-74
2022/01/22 18:03:44;;;;;;;;;;;;;;;;;;6182670;23;19912;-76
2022/01/22 18:06:10;;;;;;;;;;;;;;;;;;6182328;23;19908;-74
2022/01/22 18:08:36;;;;;;;;;;;;;;;;;;6182478;23;20623;-73
2022/01/22 18:11:07;;;;;;;;;;;;;;;;;;6182797;23;19904;-78
2022/01/22 18:13:33;;;;;;;;;;;;;;;;;;6181748;23;20285;-74
2022/01/22 18:16:00;;;;;;;;;;;;;;;;;;6181985;23;19908;-75
2022/01/22 18:18:26;;;;;;;;;;;;;;;;;;6181245;23;20297;-77
2022/01/22 18:20:52;;;;;;;;;;;;;;;;;;6181232;23;19939;-73
2022/01/22 18:23:17;;;;;;;;;;;;;;;;;;6182170;23;19912;-76
2022/01/22 18:25:43;;;;;;;;;;;;;;;;;;6181177;23;19908;-77
2022/01/22 18:28:09;;;;;;;;;;;;;;;;;;6183294;23;19908;-78
2022/01/22 18:30:35;;;;;;;;;;;;;;;;;;6182764;23;19912;-76
2022/01/22 18:33:01;;;;;;;;;;;;;;;;;;6183583;23;19943;-76
2022/01/22 18:35:27;;;;;;;;;;;;;;;;;;6182707;23;19911;-76
2022/01/22 18:37:53;;;;;;;;;;;;;;;;;;6181179;23;19908;-77
2022/01/22 18:40:19;;;;;;;;;;;;;;;;;;6179406;23;19912;-77
2022/01/22 18:42:51;;;;;;;;;;;;;;;;;;6180532;23;19919;-76
2022/01/22 18:45:17;;;;;;;;;;;;;;;;;;6180205;23;19908;-76
2022/01/22 18:47:43;;;;;;;;;;;;;;;;;;6180095;23;20324;-76
2022/01/22 18:50:10;;;;;;;;;;;;;;;;;;6180714;23;20346;-76
2022/01/22 18:52:39;;;;;;;;;;;;;;;;;;6180140;23;20334;-76
2022/01/22 18:55:05;;;;;;;;;;;;;;;;;;6180662;23;19913;-76
2022/01/22 18:57:31;;;;;;;;;;;;;;;;;;6180193;23;19963;-76
2022/01/22 18:59:56;;;;;;;;;;;;;;;;;;6180016;23;20305;-75
2022/01/22 19:02:22;;;;;;;;;;;;;;;;;;6180748;23;19948;-76
2022/01/22 19:04:48;;;;;;;;;;;;;;;;;;6178936;23;20398;-78